sensor_id;sensor_type;location;lat;lon;timestamp;P1;durP1;ratioP1;P2;durP2;ratioP2
14066;SDS011;7108;42.684;23.350;2022-10-26T00:00:08;253.67;;;102.77;;
14066;SDS011;7108;42.684;23.350;2022-10-26T00:02:34;254.50;;;102.00;;
14066;SDS011;7108;42.684;23.350;2022-10-26T00:04:59;262.30;;;103.47;;
14066;SDS011;7108;42.684;23.350;2022-10-26T00:07:27;226.73;;;96.60;;
14066;SDS011;7108;42.684;23.350;2022-10-26T00:09:53;275.10;;;103.67;;
14066;SDS011;7108;42.684;23.350;2022-10-26T00:12:19;247.50;;;98.17;;
14066;SDS011;7108;42.684;23.350;2022-10-26T00:14:45;242.17;;;100.00;;
14066;SDS011;7108;42.684;23.350;2022-10-26T00:17:10;239.83;;;100.07;;
14066;SDS011;7108;42.684;23.350;2022-10-26T00:19:35;234.13;;;98.57;;
14066;SDS011;7108;42.684;23.350;2022-10-26T00:22:02;251.43;;;103.23;;
14066;SDS011;7108;42.684;23.350;2022-10-26T00:24:27;239.90;;;96.53;;
14066;SDS011;7108;42.684;23.350;2022-10-26T00:26:53;258.83;;;100.13;;
14066;SDS011;7108;42.684;23.350;2022-10-26T00:29:18;252.90;;;104.10;;
14066;SDS011;7108;42.684;23.350;2022-10-26T00:31:44;246.83;;;104.00;;
14066;SDS011;7108;42.684;23.350;2022-10-26T00:34:09;252.17;;;103.83;;
14066;SDS011;7108;42.684;23.350;2022-10-26T00:36:36;237.57;;;101.13;;
14066;SDS011;7108;42.684;23.350;2022-10-26T00:39:01;229.33;;;97.57;;
14066;SDS011;7108;42.684;23.350;2022-10-26T00:41:29;261.77;;;104.43;;
14066;SDS011;7108;42.684;23.350;2022-10-26T00:43:57;264.87;;;100.93;;
14066;SDS011;7108;42.684;23.350;2022-10-26T00:46:27;250.10;;;102.67;;
14066;SDS011;7108;42.684;23.350;2022-10-26T00:48:55;288.03;;;107.00;;
14066;SDS011;7108;42.684;23.350;2022-10-26T00:51:34;221.27;;;95.70;;
14066;SDS011;7108;42.684;23.350;2022-10-26T00:54:06;235.53;;;98.47;;
14066;SDS011;7108;42.684;23.350;2022-10-26T00:56:35;236.33;;;97.80;;
14066;SDS011;7108;42.684;23.350;2022-10-26T00:59:02;263.70;;;101.97;;
14066;SDS011;7108;42.684;23.350;2022-10-26T01:01:30;245.13;;;101.23;;
14066;SDS011;7108;42.684;23.350;2022-10-26T01:04:00;248.30;;;102.20;;
14066;SDS011;7108;42.684;23.350;2022-10-26T01:06:28;244.20;;;100.23;;
14066;SDS011;7108;42.684;23.350;2022-10-26T01:08:55;261.97;;;102.47;;
14066;SDS011;7108;42.684;23.350;2022-10-26T01:11:21;250.53;;;100.83;;
14066;SDS011;7108;42.684;23.350;2022-10-26T01:13:46;260.27;;;102.67;;
14066;SDS011;7108;42.684;23.350;2022-10-26T01:17:02;234.00;;;98.23;;
14066;SDS011;7108;42.684;23.350;2022-10-26T01:22:06;285.30;;;105.37;;
14066;SDS011;7108;42.684;23.350;2022-10-26T01:24:51;245.37;;;100.13;;
14066;SDS011;7108;42.684;23.350;2022-10-26T01:27:39;259.73;;;103.03;;
14066;SDS011;7108;42.684;23.350;2022-10-26T01:35:59;233.10;;;97.87;;
14066;SDS011;7108;42.684;23.350;2022-10-26T01:38:38;238.23;;;93.53;;
14066;SDS011;7108;42.684;23.350;2022-10-26T01:43:58;248.70;;;97.80;;
14066;SDS011;7108;42.684;23.350;2022-10-26T01:46:31;227.53;;;94.80;;
14066;SDS011;7108;42.684;23.350;2022-10-26T01:49:01;281.77;;;98.33;;
14066;SDS011;7108;42.684;23.350;2022-10-26T01:51:31;252.93;;;99.87;;
14066;SDS011;7108;42.684;23.350;2022-10-26T01:53:58;282.53;;;100.77;;
14066;SDS011;7108;42.684;23.350;2022-10-26T01:56:24;245.53;;;95.57;;
14066;SDS011;7108;42.684;23.350;2022-10-26T02:01:53;245.33;;;95.30;;
14066;SDS011;7108;42.684;23.350;2022-10-26T02:15:14;246.70;;;97.10;;
14066;SDS011;7108;42.684;23.350;2022-10-26T02:17:53;233.03;;;98.77;;
14066;SDS011;7108;42.684;23.350;2022-10-26T02:20:27;248.50;;;98.40;;
14066;SDS011;7108;42.684;23.350;2022-10-26T02:22:57;280.13;;;102.20;;
14066;SDS011;7108;42.684;23.350;2022-10-26T02:25:29;237.53;;;96.17;;
14066;SDS011;7108;42.684;23.350;2022-10-26T02:27:59;282.67;;;99.93;;
14066;SDS011;7108;42.684;23.350;2022-10-26T02:30:33;228.40;;;97.00;;
14066;SDS011;7108;42.684;23.350;2022-10-26T02:33:00;267.87;;;93.50;;
14066;SDS011;7108;42.684;23.350;2022-10-26T02:35:30;253.83;;;91.90;;
14066;SDS011;7108;42.684;23.350;2022-10-26T02:37:59;271.60;;;92.43;;
14066;SDS011;7108;42.684;23.350;2022-10-26T02:40:28;238.97;;;90.47;;
14066;SDS011;7108;42.684;23.350;2022-10-26T02:42:55;238.70;;;89.87;;
14066;SDS011;7108;42.684;23.350;2022-10-26T02:45:25;244.40;;;92.57;;
14066;SDS011;7108;42.684;23.350;2022-10-26T02:47:55;236.57;;;91.17;;
14066;SDS011;7108;42.684;23.350;2022-10-26T02:50:23;236.93;;;90.10;;
14066;SDS011;7108;42.684;23.350;2022-10-26T02:52:59;261.00;;;92.40;;
14066;SDS011;7108;42.684;23.350;2022-10-26T02:55:45;235.33;;;91.37;;
14066;SDS011;7108;42.684;23.350;2022-10-26T02:58:16;226.97;;;87.80;;
14066;SDS011;7108;42.684;23.350;2022-10-26T03:00:46;231.33;;;89.70;;
14066;SDS011;7108;42.684;23.350;2022-10-26T03:03:11;249.47;;;92.83;;
14066;SDS011;7108;42.684;23.350;2022-10-26T03:05:40;233.63;;;89.73;;
14066;SDS011;7108;42.684;23.350;2022-10-26T03:08:06;254.47;;;92.97;;
14066;SDS011;7108;42.684;23.350;2022-10-26T03:10:32;241.53;;;91.30;;
14066;SDS011;7108;42.684;23.350;2022-10-26T03:13:00;241.13;;;90.50;;
14066;SDS011;7108;42.684;23.350;2022-10-26T03:15:26;252.67;;;95.03;;
14066;SDS011;7108;42.684;23.350;2022-10-26T03:17:51;268.70;;;93.63;;
14066;SDS011;7108;42.684;23.350;2022-10-26T03:20:16;234.93;;;88.63;;
14066;SDS011;7108;42.684;23.350;2022-10-26T03:22:42;255.20;;;95.47;;
14066;SDS011;7108;42.684;23.350;2022-10-26T03:25:07;263.57;;;97.00;;
14066;SDS011;7108;42.684;23.350;2022-10-26T03:27:33;247.00;;;93.07;;
14066;SDS011;7108;42.684;23.350;2022-10-26T03:29:59;275.83;;;100.43;;
14066;SDS011;7108;42.684;23.350;2022-10-26T03:32:24;237.30;;;91.93;;
14066;SDS011;7108;42.684;23.350;2022-10-26T03:34:50;273.73;;;94.07;;
14066;SDS011;7108;42.684;23.350;2022-10-26T03:37:15;250.20;;;99.97;;
14066;SDS011;7108;42.684;23.350;2022-10-26T03:39:40;223.83;;;91.00;;
14066;SDS011;7108;42.684;23.350;2022-10-26T03:42:06;307.23;;;123.13;;
14066;SDS011;7108;42.684;23.350;2022-10-26T03:44:31;275.17;;;95.43;;
14066;SDS011;7108;42.684;23.350;2022-10-26T03:46:56;293.80;;;94.83;;
14066;SDS011;7108;42.684;23.350;2022-10-26T03:49:22;295.30;;;96.83;;
14066;SDS011;7108;42.684;23.350;2022-10-26T03:51:47;279.60;;;94.27;;
14066;SDS011;7108;42.684;23.350;2022-10-26T03:54:13;262.17;;;90.73;;
14066;SDS011;7108;42.684;23.350;2022-10-26T03:56:38;254.87;;;90.13;;
14066;SDS011;7108;42.684;23.350;2022-10-26T03:59:04;303.90;;;96.80;;
14066;SDS011;7108;42.684;23.350;2022-10-26T04:01:29;289.33;;;94.13;;
14066;SDS011;7108;42.684;23.350;2022-10-26T04:03:54;284.63;;;92.90;;
14066;SDS011;7108;42.684;23.350;2022-10-26T04:06:20;298.50;;;97.83;;
14066;SDS011;7108;42.684;23.350;2022-10-26T04:08:45;272.67;;;94.03;;
14066;SDS011;7108;42.684;23.350;2022-10-26T04:11:10;244.93;;;88.87;;
14066;SDS011;7108;42.684;23.350;2022-10-26T04:13:36;271.67;;;93.00;;
14066;SDS011;7108;42.684;23.350;2022-10-26T04:16:01;295.37;;;95.07;;
14066;SDS011;7108;42.684;23.350;2022-10-26T04:18:27;273.27;;;94.17;;
14066;SDS011;7108;42.684;23.350;2022-10-26T04:20:52;310.50;;;99.53;;
14066;SDS011;7108;42.684;23.350;2022-10-26T04:23:18;246.87;;;91.20;;
14066;SDS011;7108;42.684;23.350;2022-10-26T04:25:44;245.40;;;92.20;;
14066;SDS011;7108;42.684;23.350;2022-10-26T04:28:10;236.70;;;87.73;;
14066;SDS011;7108;42.684;23.350;2022-10-26T04:30:37;238.83;;;89.10;;
14066;SDS011;7108;42.684;23.350;2022-10-26T04:33:03;284.77;;;90.97;;
14066;SDS011;7108;42.684;23.350;2022-10-26T04:35:29;234.17;;;88.30;;
14066;SDS011;7108;42.684;23.350;2022-10-26T04:37:58;283.33;;;95.87;;
14066;SDS011;7108;42.684;23.350;2022-10-26T04:40:26;274.20;;;98.57;;
14066;SDS011;7108;42.684;23.350;2022-10-26T04:42:52;285.23;;;102.77;;
14066;SDS011;7108;42.684;23.350;2022-10-26T04:45:17;277.73;;;99.33;;
14066;SDS011;7108;42.684;23.350;2022-10-26T04:47:46;234.10;;;95.17;;
14066;SDS011;7108;42.684;23.350;2022-10-26T04:50:12;238.70;;;91.70;;
14066;SDS011;7108;42.684;23.350;2022-10-26T04:52:38;250.13;;;97.33;;
14066;SDS011;7108;42.684;23.350;2022-10-26T04:55:05;270.50;;;97.10;;
14066;SDS011;7108;42.684;23.350;2022-10-26T04:57:31;237.40;;;96.00;;
14066;SDS011;7108;42.684;23.350;2022-10-26T04:59:58;266.53;;;103.03;;
14066;SDS011;7108;42.684;23.350;2022-10-26T05:02:24;265.80;;;98.87;;
14066;SDS011;7108;42.684;23.350;2022-10-26T05:04:50;269.93;;;97.87;;
14066;SDS011;7108;42.684;23.350;2022-10-26T05:07:15;241.93;;;90.80;;
14066;SDS011;7108;42.684;23.350;2022-10-26T05:09:41;241.90;;;95.87;;
14066;SDS011;7108;42.684;23.350;2022-10-26T05:12:06;272.03;;;96.37;;
14066;SDS011;7108;42.684;23.350;2022-10-26T05:14:32;243.90;;;91.37;;
14066;SDS011;7108;42.684;23.350;2022-10-26T05:16:57;290.67;;;99.57;;
14066;SDS011;7108;42.684;23.350;2022-10-26T05:19:23;253.80;;;99.37;;
14066;SDS011;7108;42.684;23.350;2022-10-26T05:21:48;252.67;;;95.47;;
14066;SDS011;7108;42.684;23.350;2022-10-26T05:24:13;250.80;;;98.10;;
14066;SDS011;7108;42.684;23.350;2022-10-26T05:26:39;244.50;;;99.87;;
14066;SDS011;7108;42.684;23.350;2022-10-26T05:29:04;279.27;;;101.70;;
14066;SDS011;7108;42.684;23.350;2022-10-26T05:31:29;246.03;;;98.53;;
14066;SDS011;7108;42.684;23.350;2022-10-26T05:33:55;284.10;;;103.17;;
14066;SDS011;7108;42.684;23.350;2022-10-26T05:36:20;256.80;;;99.43;;
14066;SDS011;7108;42.684;23.350;2022-10-26T05:38:46;235.47;;;97.50;;
14066;SDS011;7108;42.684;23.350;2022-10-26T05:41:11;249.17;;;101.33;;
14066;SDS011;7108;42.684;23.350;2022-10-26T05:43:37;246.03;;;94.70;;
14066;SDS011;7108;42.684;23.350;2022-10-26T05:46:03;271.37;;;95.37;;
14066;SDS011;7108;42.684;23.350;2022-10-26T05:48:28;260.57;;;95.70;;
14066;SDS011;7108;42.684;23.350;2022-10-26T05:50:57;275.50;;;95.70;;
14066;SDS011;7108;42.684;23.350;2022-10-26T05:53:24;245.03;;;95.97;;
14066;SDS011;7108;42.684;23.350;2022-10-26T05:55:50;247.07;;;97.70;;
14066;SDS011;7108;42.684;23.350;2022-10-26T05:58:15;224.97;;;92.07;;
14066;SDS011;7108;42.684;23.350;2022-10-26T06:01:25;254.87;;;102.03;;
14066;SDS011;7108;42.684;23.350;2022-10-26T06:06:20;258.57;;;100.60;;
14066;SDS011;7108;42.684;23.350;2022-10-26T06:08:46;229.77;;;98.23;;
14066;SDS011;7108;42.684;23.350;2022-10-26T06:11:12;245.67;;;99.93;;
14066;SDS011;7108;42.684;23.350;2022-10-26T06:13:38;233.13;;;92.30;;
14066;SDS011;7108;42.684;23.350;2022-10-26T06:26:49;255.50;;;102.57;;
14066;SDS011;7108;42.684;23.350;2022-10-26T06:32:19;271.27;;;100.97;;
14066;SDS011;7108;42.684;23.350;2022-10-26T06:34:48;267.13;;;102.17;;
14066;SDS011;7108;42.684;23.350;2022-10-26T06:37:17;245.57;;;102.77;;
14066;SDS011;7108;42.684;23.350;2022-10-26T06:39:44;240.40;;;98.77;;
14066;SDS011;7108;42.684;23.350;2022-10-26T06:42:11;249.63;;;98.30;;
14066;SDS011;7108;42.684;23.350;2022-10-26T06:44:37;241.20;;;99.40;;
14066;SDS011;7108;42.684;23.350;2022-10-26T06:47:12;275.37;;;97.60;;
14066;SDS011;7108;42.684;23.350;2022-10-26T06:52:17;247.10;;;96.50;;
14066;SDS011;7108;42.684;23.350;2022-10-26T06:54:59;280.07;;;100.83;;
14066;SDS011;7108;42.684;23.350;2022-10-26T06:57:30;249.23;;;99.77;;
14066;SDS011;7108;42.684;23.350;2022-10-26T06:59:59;250.13;;;97.77;;
14066;SDS011;7108;42.684;23.350;2022-10-26T07:02:28;264.53;;;99.43;;
14066;SDS011;7108;42.684;23.350;2022-10-26T07:04:53;244.53;;;97.63;;
14066;SDS011;7108;42.684;23.350;2022-10-26T07:07:28;265.13;;;103.73;;
14066;SDS011;7108;42.684;23.350;2022-10-26T07:09:55;276.73;;;101.30;;
14066;SDS011;7108;42.684;23.350;2022-10-26T07:12:20;245.00;;;101.43;;
14066;SDS011;7108;42.684;23.350;2022-10-26T07:14:46;231.27;;;100.27;;
14066;SDS011;7108;42.684;23.350;2022-10-26T07:17:12;268.80;;;103.20;;
14066;SDS011;7108;42.684;23.350;2022-10-26T07:19:37;248.77;;;103.90;;
14066;SDS011;7108;42.684;23.350;2022-10-26T07:22:04;280.87;;;105.17;;
14066;SDS011;7108;42.684;23.350;2022-10-26T07:24:30;252.97;;;101.43;;
14066;SDS011;7108;42.684;23.350;2022-10-26T07:26:56;269.80;;;106.93;;
14066;SDS011;7108;42.684;23.350;2022-10-26T07:29:22;224.77;;;98.27;;
14066;SDS011;7108;42.684;23.350;2022-10-26T07:31:50;257.67;;;104.27;;
14066;SDS011;7108;42.684;23.350;2022-10-26T07:34:16;251.43;;;103.53;;
14066;SDS011;7108;42.684;23.350;2022-10-26T07:36:41;246.27;;;98.47;;
14066;SDS011;7108;42.684;23.350;2022-10-26T07:39:07;248.00;;;103.93;;
14066;SDS011;7108;42.684;23.350;2022-10-26T07:41:32;261.57;;;106.30;;
14066;SDS011;7108;42.684;23.350;2022-10-26T07:43:58;298.70;;;109.47;;
14066;SDS011;7108;42.684;23.350;2022-10-26T07:46:24;262.70;;;107.47;;
14066;SDS011;7108;42.684;23.350;2022-10-26T07:48:50;289.43;;;114.03;;
14066;SDS011;7108;42.684;23.350;2022-10-26T07:51:15;239.63;;;106.60;;
14066;SDS011;7108;42.684;23.350;2022-10-26T07:53:41;228.90;;;108.00;;
14066;SDS011;7108;42.684;23.350;2022-10-26T07:56:06;288.63;;;114.90;;
14066;SDS011;7108;42.684;23.350;2022-10-26T07:58:32;274.30;;;119.23;;
14066;SDS011;7108;42.684;23.350;2022-10-26T08:01:04;289.73;;;115.10;;
14066;SDS011;7108;42.684;23.350;2022-10-26T08:03:31;276.27;;;117.53;;
14066;SDS011;7108;42.684;23.350;2022-10-26T08:05:56;297.80;;;116.57;;
14066;SDS011;7108;42.684;23.350;2022-10-26T08:08:22;252.87;;;109.73;;
14066;SDS011;7108;42.684;23.350;2022-10-26T08:10:47;266.50;;;114.20;;
14066;SDS011;7108;42.684;23.350;2022-10-26T08:13:13;253.77;;;113.80;;
14066;SDS011;7108;42.684;23.350;2022-10-26T08:15:39;257.80;;;110.40;;
14066;SDS011;7108;42.684;23.350;2022-10-26T08:18:04;284.73;;;113.73;;
14066;SDS011;7108;42.684;23.350;2022-10-26T08:20:30;255.17;;;113.20;;
14066;SDS011;7108;42.684;23.350;2022-10-26T08:22:56;281.40;;;113.60;;
14066;SDS011;7108;42.684;23.350;2022-10-26T08:25:22;255.83;;;112.50;;
14066;SDS011;7108;42.684;23.350;2022-10-26T08:27:48;256.83;;;116.20;;
14066;SDS011;7108;42.684;23.350;2022-10-26T08:30:14;224.73;;;111.80;;
14066;SDS011;7108;42.684;23.350;2022-10-26T08:32:39;262.27;;;120.17;;
14066;SDS011;7108;42.684;23.350;2022-10-26T08:35:06;237.67;;;115.50;;
14066;SDS011;7108;42.684;23.350;2022-10-26T08:37:32;243.93;;;116.47;;
14066;SDS011;7108;42.684;23.350;2022-10-26T08:39:58;285.70;;;121.37;;
14066;SDS011;7108;42.684;23.350;2022-10-26T08:42:24;255.37;;;118.33;;
14066;SDS011;7108;42.684;23.350;2022-10-26T08:44:57;249.90;;;114.37;;
14066;SDS011;7108;42.684;23.350;2022-10-26T08:47:45;264.87;;;114.57;;
14066;SDS011;7108;42.684;23.350;2022-10-26T08:51:00;258.10;;;112.57;;
14066;SDS011;7108;42.684;23.350;2022-10-26T08:58:37;236.80;;;115.30;;
14066;SDS011;7108;42.684;23.350;2022-10-26T09:01:23;246.30;;;116.37;;
14066;SDS011;7108;42.684;23.350;2022-10-26T09:03:49;235.50;;;117.53;;
14066;SDS011;7108;42.684;23.350;2022-10-26T09:17:13;276.53;;;116.73;;
14066;SDS011;7108;42.684;23.350;2022-10-26T09:19:58;252.97;;;113.70;;
14066;SDS011;7108;42.684;23.350;2022-10-26T09:22:59;252.17;;;112.90;;
14066;SDS011;7108;42.684;23.350;2022-10-26T09:25:38;246.13;;;113.80;;
14066;SDS011;7108;42.684;23.350;2022-10-26T09:28:04;276.47;;;120.90;;
14066;SDS011;7108;42.684;23.350;2022-10-26T09:30:44;329.70;;;160.87;;
14066;SDS011;7108;42.684;23.350;2022-10-26T09:33:13;278.20;;;121.63;;
14066;SDS011;7108;42.684;23.350;2022-10-26T09:35:43;258.37;;;116.63;;
14066;SDS011;7108;42.684;23.350;2022-10-26T09:46:14;292.67;;;123.23;;
14066;SDS011;7108;42.684;23.350;2022-10-26T09:48:47;246.37;;;116.53;;
14066;SDS011;7108;42.684;23.350;2022-10-26T09:51:17;253.90;;;116.33;;
14066;SDS011;7108;42.684;23.350;2022-10-26T09:53:43;258.30;;;118.70;;
14066;SDS011;7108;42.684;23.350;2022-10-26T09:56:10;286.47;;;120.47;;
14066;SDS011;7108;42.684;23.350;2022-10-26T09:58:47;251.53;;;118.40;;
14066;SDS011;7108;42.684;23.350;2022-10-26T10:03:46;258.07;;;118.87;;
14066;SDS011;7108;42.684;23.350;2022-10-26T10:06:18;293.87;;;124.60;;
14066;SDS011;7108;42.684;23.350;2022-10-26T10:09:04;257.37;;;118.80;;
14066;SDS011;7108;42.684;23.350;2022-10-26T10:11:43;244.43;;;117.83;;
14066;SDS011;7108;42.684;23.350;2022-10-26T10:14:18;260.60;;;123.10;;
14066;SDS011;7108;42.684;23.350;2022-10-26T10:16:49;286.57;;;126.23;;
14066;SDS011;7108;42.684;23.350;2022-10-26T10:19:27;244.90;;;119.30;;
14066;SDS011;7108;42.684;23.350;2022-10-26T10:21:55;285.50;;;123.47;;
14066;SDS011;7108;42.684;23.350;2022-10-26T10:26:55;260.47;;;122.20;;
14066;SDS011;7108;42.684;23.350;2022-10-26T10:29:26;263.53;;;118.70;;
14066;SDS011;7108;42.684;23.350;2022-10-26T10:32:19;290.37;;;122.47;;
14066;SDS011;7108;42.684;23.350;2022-10-26T10:34:47;253.97;;;120.60;;
14066;SDS011;7108;42.684;23.350;2022-10-26T10:42:36;271.73;;;122.77;;
14066;SDS011;7108;42.684;23.350;2022-10-26T10:45:05;298.57;;;126.37;;
14066;SDS011;7108;42.684;23.350;2022-10-26T10:47:33;252.43;;;120.93;;
14066;SDS011;7108;42.684;23.350;2022-10-26T10:50:01;307.63;;;126.60;;
14066;SDS011;7108;42.684;23.350;2022-10-26T10:52:39;230.53;;;117.00;;
14066;SDS011;7108;42.684;23.350;2022-10-26T11:00:25;281.53;;;127.97;;
14066;SDS011;7108;42.684;23.350;2022-10-26T11:11:02;275.37;;;128.23;;
14066;SDS011;7108;42.684;23.350;2022-10-26T11:13:43;260.83;;;125.20;;
14066;SDS011;7108;42.684;23.350;2022-10-26T11:16:11;293.73;;;125.77;;
14066;SDS011;7108;42.684;23.350;2022-10-26T11:18:42;247.50;;;118.03;;
14066;SDS011;7108;42.684;23.350;2022-10-26T11:21:14;282.67;;;125.43;;
14066;SDS011;7108;42.684;23.350;2022-10-26T11:23:47;263.30;;;125.67;;
14066;SDS011;7108;42.684;23.350;2022-10-26T11:26:30;263.37;;;122.87;;
14066;SDS011;7108;42.684;23.350;2022-10-26T11:29:04;280.23;;;121.83;;
14066;SDS011;7108;42.684;23.350;2022-10-26T11:31:45;265.30;;;122.87;;
14066;SDS011;7108;42.684;23.350;2022-10-26T11:36:58;256.77;;;121.23;;
14066;SDS011;7108;42.684;23.350;2022-10-26T11:44:43;253.67;;;118.43;;
14066;SDS011;7108;42.684;23.350;2022-10-26T11:47:15;289.53;;;120.83;;
14066;SDS011;7108;42.684;23.350;2022-10-26T11:49:49;264.00;;;124.70;;
14066;SDS011;7108;42.684;23.350;2022-10-26T11:52:27;258.47;;;121.53;;
14066;SDS011;7108;42.684;23.350;2022-10-26T11:55:03;298.43;;;130.83;;
14066;SDS011;7108;42.684;23.350;2022-10-26T11:57:31;263.37;;;121.60;;
14066;SDS011;7108;42.684;23.350;2022-10-26T12:02:37;238.97;;;113.77;;
14066;SDS011;7108;42.684;23.350;2022-10-26T12:07:39;267.23;;;123.80;;
14066;SDS011;7108;42.684;23.350;2022-10-26T12:10:22;253.90;;;120.87;;
14066;SDS011;7108;42.684;23.350;2022-10-26T12:15:47;255.13;;;118.37;;
14066;SDS011;7108;42.684;23.350;2022-10-26T12:21:03;292.60;;;118.73;;
14066;SDS011;7108;42.684;23.350;2022-10-26T12:23:38;255.70;;;114.33;;
14066;SDS011;7108;42.684;23.350;2022-10-26T12:33:55;268.77;;;121.47;;
14066;SDS011;7108;42.684;23.350;2022-10-26T12:39:27;283.97;;;117.23;;
14066;SDS011;7108;42.684;23.350;2022-10-26T12:42:42;268.33;;;120.70;;
14066;SDS011;7108;42.684;23.350;2022-10-26T13:03:33;267.30;;;117.23;;
14066;SDS011;7108;42.684;23.350;2022-10-26T13:06:16;282.47;;;120.13;;
14066;SDS011;7108;42.684;23.350;2022-10-26T13:08:57;258.43;;;120.97;;
14066;SDS011;7108;42.684;23.350;2022-10-26T13:11:29;259.00;;;126.43;;
14066;SDS011;7108;42.684;23.350;2022-10-26T13:14:03;289.33;;;126.07;;
14066;SDS011;7108;42.684;23.350;2022-10-26T13:16:31;257.67;;;120.67;;
14066;SDS011;7108;42.684;23.350;2022-10-26T13:18:58;268.57;;;123.87;;
14066;SDS011;7108;42.684;23.350;2022-10-26T13:21:24;268.37;;;127.13;;
14066;SDS011;7108;42.684;23.350;2022-10-26T13:26:19;275.37;;;123.13;;
14066;SDS011;7108;42.684;23.350;2022-10-26T13:28:48;255.47;;;119.50;;
14066;SDS011;7108;42.684;23.350;2022-10-26T13:36:28;240.73;;;117.07;;
14066;SDS011;7108;42.684;23.350;2022-10-26T13:39:09;287.23;;;122.77;;
14066;SDS011;7108;42.684;23.350;2022-10-26T13:41:45;266.93;;;117.40;;
14066;SDS011;7108;42.684;23.350;2022-10-26T13:44:15;285.20;;;123.40;;
14066;SDS011;7108;42.684;23.350;2022-10-26T13:46:47;270.37;;;125.27;;
14066;SDS011;7108;42.684;23.350;2022-10-26T13:49:21;239.50;;;119.63;;
14066;SDS011;7108;42.684;23.350;2022-10-26T13:51:51;264.47;;;124.03;;
14066;SDS011;7108;42.684;23.350;2022-10-26T13:54:29;276.47;;;122.53;;
14066;SDS011;7108;42.684;23.350;2022-10-26T13:57:02;276.07;;;122.60;;
14066;SDS011;7108;42.684;23.350;2022-10-26T13:59:49;267.10;;;118.87;;
14066;SDS011;7108;42.684;23.350;2022-10-26T14:02:18;248.20;;;117.07;;
14066;SDS011;7108;42.684;23.350;2022-10-26T14:04:50;267.40;;;124.20;;
14066;SDS011;7108;42.684;23.350;2022-10-26T14:07:25;265.67;;;122.43;;
14066;SDS011;7108;42.684;23.350;2022-10-26T14:09:58;280.40;;;125.63;;
14066;SDS011;7108;42.684;23.350;2022-10-26T14:12:24;289.20;;;130.73;;
14066;SDS011;7108;42.684;23.350;2022-10-26T14:14:52;248.57;;;120.67;;
14066;SDS011;7108;42.684;23.350;2022-10-26T14:17:27;293.07;;;129.93;;
14066;SDS011;7108;42.684;23.350;2022-10-26T14:19:52;293.03;;;129.10;;
14066;SDS011;7108;42.684;23.350;2022-10-26T14:22:22;278.30;;;127.00;;
14066;SDS011;7108;42.684;23.350;2022-10-26T14:24:58;282.20;;;124.90;;
14066;SDS011;7108;42.684;23.350;2022-10-26T14:27:25;252.20;;;119.80;;
14066;SDS011;7108;42.684;23.350;2022-10-26T14:29:52;283.57;;;125.90;;
14066;SDS011;7108;42.684;23.350;2022-10-26T14:32:26;283.73;;;127.07;;
14066;SDS011;7108;42.684;23.350;2022-10-26T14:34:57;258.73;;;120.03;;
14066;SDS011;7108;42.684;23.350;2022-10-26T14:40:22;275.83;;;123.97;;
14066;SDS011;7108;42.684;23.350;2022-10-26T14:42:57;275.63;;;129.07;;
14066;SDS011;7108;42.684;23.350;2022-10-26T14:45:27;297.27;;;130.37;;
14066;SDS011;7108;42.684;23.350;2022-10-26T14:47:55;276.57;;;128.43;;
14066;SDS011;7108;42.684;23.350;2022-10-26T14:50:22;287.93;;;125.97;;
14066;SDS011;7108;42.684;23.350;2022-10-26T14:52:52;277.37;;;127.37;;
14066;SDS011;7108;42.684;23.350;2022-10-26T14:55:21;274.70;;;124.33;;
14066;SDS011;7108;42.684;23.350;2022-10-26T14:57:49;289.03;;;129.27;;
14066;SDS011;7108;42.684;23.350;2022-10-26T15:00:21;297.23;;;128.30;;
14066;SDS011;7108;42.684;23.350;2022-10-26T15:02:50;285.03;;;125.90;;
14066;SDS011;7108;42.684;23.350;2022-10-26T15:07:51;256.27;;;120.17;;
14066;SDS011;7108;42.684;23.350;2022-10-26T15:15:49;294.90;;;132.97;;
14066;SDS011;7108;42.684;23.350;2022-10-26T15:20:46;278.37;;;125.97;;
14066;SDS011;7108;42.684;23.350;2022-10-26T15:23:14;335.87;;;131.93;;
14066;SDS011;7108;42.684;23.350;2022-10-26T15:25:40;285.50;;;124.50;;
14066;SDS011;7108;42.684;23.350;2022-10-26T15:28:24;310.17;;;127.47;;
14066;SDS011;7108;42.684;23.350;2022-10-26T15:33:32;294.20;;;124.90;;
14066;SDS011;7108;42.684;23.350;2022-10-26T15:36:11;282.60;;;124.10;;
14066;SDS011;7108;42.684;23.350;2022-10-26T15:38:44;266.60;;;121.87;;
14066;SDS011;7108;42.684;23.350;2022-10-26T15:41:16;315.57;;;126.90;;
14066;SDS011;7108;42.684;23.350;2022-10-26T15:43:46;277.40;;;121.50;;
14066;SDS011;7108;42.684;23.350;2022-10-26T15:46:13;324.03;;;127.73;;
14066;SDS011;7108;42.684;23.350;2022-10-26T15:48:39;276.37;;;121.33;;
14066;SDS011;7108;42.684;23.350;2022-10-26T15:51:05;273.73;;;117.27;;
14066;SDS011;7108;42.684;23.350;2022-10-26T15:53:32;258.53;;;118.70;;
14066;SDS011;7108;42.684;23.350;2022-10-26T15:55:59;267.90;;;114.77;;
14066;SDS011;7108;42.684;23.350;2022-10-26T15:58:26;279.57;;;119.03;;
14066;SDS011;7108;42.684;23.350;2022-10-26T16:00:55;275.37;;;115.83;;
14066;SDS011;7108;42.684;23.350;2022-10-26T16:03:21;262.97;;;116.53;;
14066;SDS011;7108;42.684;23.350;2022-10-26T16:05:58;271.27;;;119.23;;
14066;SDS011;7108;42.684;23.350;2022-10-26T16:08:25;300.47;;;122.50;;
14066;SDS011;7108;42.684;23.350;2022-10-26T16:10:53;269.73;;;118.53;;
14066;SDS011;7108;42.684;23.350;2022-10-26T16:13:19;346.17;;;127.00;;
14066;SDS011;7108;42.684;23.350;2022-10-26T16:15:47;294.33;;;120.43;;
14066;SDS011;7108;42.684;23.350;2022-10-26T16:18:13;315.10;;;121.20;;
14066;SDS011;7108;42.684;23.350;2022-10-26T16:20:39;294.37;;;116.73;;
14066;SDS011;7108;42.684;23.350;2022-10-26T16:23:05;348.70;;;128.60;;
14066;SDS011;7108;42.684;23.350;2022-10-26T16:25:38;288.27;;;119.93;;
14066;SDS011;7108;42.684;23.350;2022-10-26T16:28:05;312.00;;;119.57;;
14066;SDS011;7108;42.684;23.350;2022-10-26T16:30:31;330.93;;;127.93;;
14066;SDS011;7108;42.684;23.350;2022-10-26T16:32:56;312.13;;;123.57;;
14066;SDS011;7108;42.684;23.350;2022-10-26T16:35:22;308.37;;;122.80;;
14066;SDS011;7108;42.684;23.350;2022-10-26T16:37:47;300.00;;;116.47;;
14066;SDS011;7108;42.684;23.350;2022-10-26T16:40:13;293.63;;;114.90;;
14066;SDS011;7108;42.684;23.350;2022-10-26T16:42:38;276.63;;;111.23;;
14066;SDS011;7108;42.684;23.350;2022-10-26T16:45:09;311.97;;;112.10;;
14066;SDS011;7108;42.684;23.350;2022-10-26T16:47:36;285.23;;;117.47;;
14066;SDS011;7108;42.684;23.350;2022-10-26T16:50:04;290.80;;;112.20;;
14066;SDS011;7108;42.684;23.350;2022-10-26T16:52:31;290.37;;;111.43;;
14066;SDS011;7108;42.684;23.350;2022-10-26T16:54:57;292.50;;;122.17;;
14066;SDS011;7108;42.684;23.350;2022-10-26T16:57:23;292.77;;;112.97;;